CDT,Max TemperatureF,Mean TemperatureF,Min TemperatureF,Max Dew PointF,MeanDew PointF,Min DewpointF,Max Humidity, Mean Humidity, Min Humidity, Max Sea Level PressureIn, Mean Sea Level PressureIn, Min Sea Level PressureIn, Max VisibilityMiles, Mean VisibilityMiles, Min VisibilityMiles, Max Wind SpeedMPH, Mean Wind SpeedMPH, Max Gust SpeedMPH,PrecipitationIn, CloudCover, Events, WindDirDegrees
2014-3-1,66,58,51,57,54,49,97,83,68,30.22,30.17,30.10,10,9,2,15,6,23,0.00,3,Rain,151
2014-3-2,70,59,48,60,54,47,100,91,63,30.20,30.13,30.00,10,6,0,13,3,,0.00,2,Fog,156
2014-3-3,66,50,34,63,47,27,96,81,59,30.20,30.05,29.92,10,9,3,23,10,30,0.02,6,Rain,307
2014-3-4,39,36,34,38,33,27,93,85,75,30.23,30.15,30.11,10,8,2,16,10,,0.24,8,Rain,359
2014-3-5,61,51,41,49,45,39,93,80,62,30.14,30.07,30.01,10,9,6,10,8,,0.08,7,Rain,22
2014-3-6,54,50,46,52,49,43,97,92,88,29.99,29.95,29.91,10,7,2,16,10,25,0.59,8,Rain,1
2014-3-7,57,50,42,46,41,38,93,80,57,30.10,30.04,29.98,10,10,8,18,11,,0.00,5,,346
2014-3-8,66,54,41,53,47,39,97,84,56,30.21,30.15,30.09,10,8,2,12,3,,0.00,2,,144
2014-3-9,72,62,52,55,52,50,97,77,46,30.26,30.19,30.13,10,10,7,8,3,,0.00,1,,180
2014-3-10,73,60,48,57,53,48,97,78,51,30.17,30.09,29.99,10,10,9,12,3,,0.00,0,,172
2014-3-11,66,62,57,64,60,55,97,93,83,29.98,29.83,29.73,10,8,4,15,3,,0.10,5,Rain,149
2014-3-12,69,58,48,62,54,34,97,78,48,30.14,29.83,29.72,10,10,4,25,9,34,0.00,6,,285
2014-3-13,64,50,35,41,33,27,86,55,26,30.31,30.24,30.16,10,10,10,20,10,24,0.00,0,,341
2014-3-14,66,50,37,53,45,37,97,76,47,30.31,30.23,30.15,10,10,6,14,4,22,0.00,1,,141
2014-3-15,64,60,55,62,58,53,96,91,78,30.15,30.05,29.90,10,9,3,17,5,23,0.26,8,Rain,90
2014-3-16,71,66,61,67,63,59,97,93,87,29.88,29.73,29.64,10,7,0,24,13,34,1.96,8,Fog-Rain-Thunderstorm,187
2014-3-17,60,53,46,59,49,41,96,85,64,29.87,29.76,29.66,10,9,4,15,7,25,0.03,8,Rain,310
2014-3-18,57,50,44,47,42,39,86,77,60,30.05,29.94,29.84,10,10,9,13,8,20,0.00,6,,321
2014-3-19,66,55,44,55,50,43,97,82,63,30.16,30.09,30.04,10,9,5,15,5,18,0.00,1,,176
2014-3-20,73,62,51,54,49,44,96,71,39,30.16,30.10,30.05,10,9,4,9,3,,0.00,1,Fog,327
2014-3-21,75,59,45,59,48,39,96,70,28,30.15,30.08,30.04,10,9,2,14,5,,0.00,0,,163
2014-3-22,75,65,55,63,57,52,100,92,43,30.09,30.05,30.00,10,4,0,13,2,21,0.00,2,Fog,134
2014-3-23,73,64,55,65,60,45,97,85,59,30.17,30.06,29.98,10,6,0,20,5,24,0.10,5,Fog-Rain-Thunderstorm,343
2014-3-24,66,60,53,49,43,39,75,58,38,30.16,30.08,29.98,10,10,10,14,9,,0.00,4,,21
2014-3-25,66,55,41,47,29,18,74,42,18,30.29,30.13,30.01,10,10,10,31,13,37,0.00,0,,327
2014-3-26,57,44,33,36,26,20,78,45,25,30.42,30.31,30.24,10,10,10,13,7,,0.00,0,,67
2014-3-27,70,58,48,63,53,39,100,77,59,30.25,30.14,30.04,10,10,6,17,10,25,0.07,6,Rain,132
2014-3-28,66,62,57,64,61,57,97,94,90,30.06,29.99,29.91,10,7,0,28,11,34,3.80,7,Fog-Rain-Thunderstorm,116
2014-3-29,73,64,55,60,55,42,97,78,42,30.19,29.99,29.89,10,8,1,22,7,33,0.95,5,Rain-Thunderstorm,315
2014-3-30,69,56,45,49,42,38,96,64,33,30.28,30.20,30.14,10,10,9,14,9,,0.00,0,,359
2014-3-31,70,56,42,53,47,39,100,72,35,30.21,30.15,30.12,10,9,4,15,4,21,0.00,0,Rain,170